createdAt,value
2018-12-20T00:00:10.184Z,5.20
2018-12-20T00:02:38.493Z,5.20
2018-12-20T00:05:06.891Z,5.30
2018-12-20T00:07:35.299Z,5.30
2018-12-20T00:10:04.614Z,5.30
2018-12-20T00:12:33.053Z,5.30
2018-12-20T00:15:01.376Z,5.20
2018-12-20T00:17:35.493Z,5.10
2018-12-20T00:20:04.690Z,5.10
2018-12-20T00:22:32.875Z,5.10
2018-12-20T00:25:01.069Z,5.00
2018-12-20T00:27:29.351Z,5.00
2018-12-20T00:29:57.761Z,5.00
2018-12-20T00:32:26.726Z,5.00
2018-12-20T00:34:55.016Z,5.10
2018-12-20T00:37:23.467Z,5.10
2018-12-20T00:39:51.700Z,5.10
2018-12-20T00:42:20.116Z,5.00
2018-12-20T00:44:48.313Z,5.10
2018-12-20T00:47:16.445Z,5.00
2018-12-20T00:49:44.725Z,5.00
2018-12-20T00:52:13.074Z,4.90
2018-12-20T00:54:41.408Z,4.90
2018-12-20T00:57:10.144Z,4.80
2018-12-20T00:59:39.044Z,4.70
2018-12-20T01:02:08.319Z,4.70
2018-12-20T01:04:36.837Z,4.70
2018-12-20T01:07:05.405Z,4.70
2018-12-20T01:09:33.879Z,4.70
2018-12-20T01:12:02.198Z,4.60
2018-12-20T01:14:30.371Z,4.50
2018-12-20T01:16:59.047Z,4.50
2018-12-20T01:19:27.287Z,4.40
2018-12-20T01:21:55.733Z,4.40
2018-12-20T01:24:24.468Z,4.40
2018-12-20T01:26:52.976Z,4.40
2018-12-20T01:29:21.278Z,4.40
2018-12-20T01:31:49.859Z,4.60
2018-12-20T01:34:18.850Z,4.70
2018-12-20T01:36:47.115Z,4.80
2018-12-20T01:39:15.578Z,4.90
2018-12-20T01:41:43.877Z,5.00
2018-12-20T01:44:12.184Z,5.10
2018-12-20T01:46:40.407Z,5.00
2018-12-20T01:49:08.658Z,5.00
2018-12-20T01:51:37.050Z,4.90
2018-12-20T01:54:05.679Z,4.90
2018-12-20T01:56:34.011Z,4.90
2018-12-20T01:59:02.684Z,4.90
2018-12-20T02:01:31.210Z,5.00
2018-12-20T02:03:59.685Z,5.00
2018-12-20T02:06:28.342Z,5.10
2018-12-20T02:08:56.470Z,5.10
2018-12-20T02:11:24.746Z,5.20
2018-12-20T02:13:53.147Z,5.20
2018-12-20T02:16:21.245Z,5.30
2018-12-20T02:18:49.458Z,5.20
2018-12-20T02:21:17.714Z,5.20
2018-12-20T02:23:46.018Z,5.30
2018-12-20T02:26:14.230Z,5.30
2018-12-20T02:28:42.740Z,5.40
2018-12-20T02:31:11.744Z,5.40
2018-12-20T02:33:39.953Z,5.50
2018-12-20T02:36:08.240Z,5.50
2018-12-20T02:38:36.477Z,5.50
2018-12-20T02:41:04.981Z,5.70
2018-12-20T02:43:33.317Z,5.70
2018-12-20T02:46:01.610Z,5.80
2018-12-20T02:48:29.920Z,5.80
2018-12-20T02:50:58.244Z,5.80
2018-12-20T02:53:26.435Z,5.90
2018-12-20T02:55:55.061Z,5.90
2018-12-20T02:58:23.433Z,6.00
2018-12-20T03:00:51.812Z,6.00
2018-12-20T03:03:20.131Z,6.10
2018-12-20T03:05:48.381Z,6.10
2018-12-20T03:08:16.929Z,6.10
2018-12-20T03:10:45.684Z,6.20
2018-12-20T03:13:14.000Z,6.20
2018-12-20T03:15:42.241Z,6.20
2018-12-20T03:18:10.627Z,6.30
2018-12-20T03:20:39.377Z,6.30
2018-12-20T03:23:07.661Z,6.30
2018-12-20T03:25:35.955Z,6.30
2018-12-20T03:28:04.256Z,6.30
2018-12-20T03:30:32.729Z,6.40
2018-12-20T03:33:01.182Z,6.40
2018-12-20T03:35:29.521Z,6.40
2018-12-20T03:37:57.627Z,6.40
2018-12-20T03:40:26.002Z,6.40
2018-12-20T03:42:54.596Z,6.40
2018-12-20T03:45:28.635Z,6.40
2018-12-20T03:47:53.097Z,6.40
2018-12-20T03:50:21.431Z,6.50
2018-12-20T03:52:49.812Z,6.50
2018-12-20T03:55:18.128Z,6.50
2018-12-20T03:57:47.013Z,6.50
2018-12-20T04:00:15.962Z,6.40
2018-12-20T04:02:44.654Z,6.40
2018-12-20T04:05:13.061Z,6.30
2018-12-20T04:07:41.519Z,6.30
2018-12-20T04:10:10.181Z,6.30
2018-12-20T04:12:38.469Z,6.30
2018-12-20T04:15:06.842Z,6.20
2018-12-20T04:17:35.372Z,6.20
2018-12-20T04:20:05.280Z,6.10
2018-12-20T04:22:33.579Z,6.10
2018-12-20T04:25:02.911Z,6.10
2018-12-20T04:27:31.303Z,6.20
2018-12-20T04:29:59.800Z,6.20
2018-12-20T04:32:28.989Z,6.20
2018-12-20T04:34:57.316Z,6.20
2018-12-20T04:37:25.829Z,6.20
2018-12-20T04:39:54.010Z,6.20
2018-12-20T04:42:22.428Z,6.20
2018-12-20T04:44:50.817Z,6.20
2018-12-20T04:47:19.117Z,6.10
2018-12-20T04:49:47.510Z,6.10
2018-12-20T04:52:16.078Z,6.10
2018-12-20T04:54:44.541Z,6.00
2018-12-20T04:57:12.907Z,6.00
2018-12-20T04:59:41.888Z,6.00
2018-12-20T05:02:10.287Z,6.00
2018-12-20T05:04:38.595Z,6.00
2018-12-20T05:07:07.431Z,6.00
2018-12-20T05:09:35.965Z,6.00
2018-12-20T05:12:04.456Z,6.00
2018-12-20T05:14:32.654Z,6.00
2018-12-20T05:17:00.821Z,6.00
2018-12-20T05:19:29.095Z,6.00
2018-12-20T05:21:57.518Z,6.00
2018-12-20T05:24:26.126Z,6.00
2018-12-20T05:26:54.623Z,6.00
2018-12-20T05:29:23.064Z,6.00
2018-12-20T05:31:51.814Z,6.00
2018-12-20T05:34:20.101Z,6.00
2018-12-20T05:36:48.347Z,6.00
2018-12-20T05:39:17.003Z,6.00
2018-12-20T05:41:45.309Z,6.00
2018-12-20T05:44:14.645Z,6.00
2018-12-20T05:46:43.038Z,6.00
2018-12-20T05:49:11.472Z,6.00
2018-12-20T05:51:39.748Z,6.10
2018-12-20T05:54:08.350Z,6.10
2018-12-20T05:56:37.100Z,6.10
2018-12-20T05:59:05.468Z,6.20
2018-12-20T06:01:34.435Z,6.10
2018-12-20T06:04:02.978Z,6.10
2018-12-20T06:06:31.157Z,6.10
2018-12-20T06:08:59.613Z,6.10
2018-12-20T06:11:28.153Z,6.10
2018-12-20T06:13:57.289Z,6.00
2018-12-20T06:16:25.458Z,6.00
2018-12-20T06:18:53.706Z,6.00
2018-12-20T06:21:21.913Z,6.00
2018-12-20T06:23:50.591Z,6.00
2018-12-20T06:26:18.818Z,6.00
2018-12-20T06:28:47.129Z,6.00
2018-12-20T06:31:15.350Z,6.00
2018-12-20T06:33:43.581Z,6.00
2018-12-20T06:36:12.111Z,6.00
2018-12-20T06:38:40.256Z,6.00
2018-12-20T06:41:09.093Z,6.00
2018-12-20T06:43:37.458Z,6.00
2018-12-20T06:46:05.562Z,6.00
2018-12-20T06:48:33.918Z,6.00
2018-12-20T06:51:02.085Z,6.00
2018-12-20T06:53:30.353Z,6.00
2018-12-20T06:55:58.650Z,6.00
2018-12-20T06:58:27.566Z,6.10
2018-12-20T07:00:56.185Z,6.10
2018-12-20T07:03:24.524Z,6.10
2018-12-20T07:05:52.636Z,6.00
2018-12-20T07:08:21.035Z,6.00
2018-12-20T07:10:50.110Z,6.00
2018-12-20T07:13:18.263Z,6.00
2018-12-20T07:15:46.460Z,6.00
2018-12-20T07:18:14.729Z,6.00
2018-12-20T07:20:43.064Z,6.00
2018-12-20T07:23:11.257Z,6.00
2018-12-20T07:25:39.515Z,6.00
2018-12-20T07:28:07.826Z,6.00
2018-12-20T07:30:36.114Z,5.90
2018-12-20T07:33:04.435Z,5.90
2018-12-20T07:35:33.744Z,5.90
2018-12-20T07:38:02.136Z,5.90
2018-12-20T07:40:30.531Z,5.90
2018-12-20T07:42:59.446Z,5.90
2018-12-20T07:45:27.967Z,5.80
2018-12-20T07:47:56.344Z,5.80
2018-12-20T07:50:24.635Z,5.70
2018-12-20T07:52:52.932Z,5.80
2018-12-20T07:55:21.324Z,5.90
2018-12-20T07:57:49.446Z,5.90
2018-12-20T08:00:17.931Z,5.80
2018-12-20T08:02:46.131Z,5.90
2018-12-20T08:05:14.803Z,5.90
2018-12-20T08:07:42.985Z,5.90
2018-12-20T08:10:11.752Z,6.00
2018-12-20T08:12:40.166Z,6.00
2018-12-20T08:15:08.525Z,6.00
2018-12-20T08:17:36.726Z,6.10
2018-12-20T08:20:05.695Z,6.10
2018-12-20T08:22:33.917Z,6.20
2018-12-20T08:25:02.188Z,6.20
2018-12-20T08:27:30.735Z,6.30
2018-12-20T08:29:59.067Z,6.30
2018-12-20T08:32:27.852Z,6.30
2018-12-20T08:34:56.014Z,6.40
2018-12-20T08:37:24.199Z,6.30
2018-12-20T08:39:52.401Z,6.40
2018-12-20T08:42:20.513Z,6.40
2018-12-20T08:44:48.939Z,6.40
2018-12-20T08:47:17.194Z,6.40
2018-12-20T08:49:45.452Z,6.40
2018-12-20T08:52:14.040Z,6.50
2018-12-20T08:54:42.251Z,6.50
2018-12-20T08:57:10.400Z,6.50
2018-12-20T08:59:39.505Z,6.60
2018-12-20T09:02:08.256Z,6.70
2018-12-20T09:04:36.702Z,6.70
2018-12-20T09:07:04.964Z,6.80
2018-12-20T09:09:34.221Z,6.80
2018-12-20T09:12:02.497Z,6.80
2018-12-20T09:14:30.957Z,6.80
2018-12-20T09:17:02.840Z,6.80
2018-12-20T09:19:29.325Z,6.80
2018-12-20T09:21:57.451Z,6.80
2018-12-20T09:31:20.344Z,6.70
2018-12-20T09:33:48.510Z,6.50
2018-12-20T09:36:16.905Z,6.50
2018-12-20T09:38:45.470Z,6.50
2018-12-20T09:41:13.652Z,6.50
2018-12-20T09:43:42.228Z,6.50
2018-12-20T09:46:11.236Z,6.50
2018-12-20T09:48:39.383Z,6.40
2018-12-20T09:51:08.503Z,6.40
2018-12-20T09:53:36.620Z,6.40
2018-12-20T09:56:04.836Z,6.40
2018-12-20T09:58:33.106Z,6.40
2018-12-20T10:01:01.770Z,6.40
2018-12-20T10:03:30.089Z,6.40
2018-12-20T10:05:58.294Z,6.40
2018-12-20T10:08:26.517Z,6.40
2018-12-20T10:10:54.652Z,6.40
2018-12-20T10:13:23.067Z,6.40
2018-12-20T10:15:51.330Z,6.50
2018-12-20T10:18:19.553Z,6.50
2018-12-20T10:20:47.899Z,6.50
2018-12-20T10:23:16.098Z,6.50
2018-12-20T10:25:44.343Z,6.50
2018-12-20T10:28:14.178Z,6.50
2018-12-20T10:30:42.883Z,6.50
2018-12-20T10:33:11.192Z,6.50
2018-12-20T10:35:39.896Z,6.50
2018-12-20T10:38:07.982Z,6.60
2018-12-20T10:40:36.230Z,6.60
2018-12-20T10:43:04.544Z,6.60
2018-12-20T10:45:32.817Z,6.70
2018-12-20T10:48:01.043Z,6.70
2018-12-20T10:50:29.388Z,6.70
2018-12-20T10:52:57.605Z,6.70
2018-12-20T10:55:25.953Z,6.70
2018-12-20T10:57:54.255Z,6.80
2018-12-20T11:00:24.379Z,6.80
2018-12-20T11:02:58.591Z,6.80
2018-12-20T11:06:03.527Z,6.80
2018-12-20T11:08:31.984Z,6.80
2018-12-20T11:11:02.062Z,6.70
2018-12-20T11:13:30.432Z,6.70
2018-12-20T11:15:58.554Z,6.70
2018-12-20T11:18:27.578Z,6.70
2018-12-20T11:20:56.042Z,6.70
2018-12-20T11:23:24.372Z,6.70
2018-12-20T11:25:52.778Z,6.70
2018-12-20T11:28:21.108Z,6.70
2018-12-20T11:30:49.384Z,6.70
2018-12-20T11:33:17.678Z,6.80
2018-12-20T11:35:45.870Z,6.80
2018-12-20T11:38:14.301Z,6.80
2018-12-20T11:40:42.521Z,6.80
2018-12-20T11:43:10.704Z,6.80
2018-12-20T11:45:38.942Z,6.80
2018-12-20T11:48:07.359Z,6.80
2018-12-20T11:50:35.941Z,6.80
2018-12-20T11:53:04.274Z,6.80
2018-12-20T11:55:32.535Z,6.80
2018-12-20T11:58:00.660Z,6.80
2018-12-20T12:00:29.389Z,6.80
2018-12-20T12:02:57.605Z,6.80
2018-12-20T12:05:26.014Z,6.90
2018-12-20T12:07:54.128Z,6.90
2018-12-20T12:10:22.785Z,6.90
2018-12-20T12:12:50.977Z,6.90
2018-12-20T12:15:19.302Z,6.90
2018-12-20T12:17:54.250Z,6.90
2018-12-20T12:20:18.632Z,6.80
2018-12-20T12:22:46.833Z,6.80
2018-12-20T12:25:15.046Z,6.80
2018-12-20T12:27:43.260Z,6.80
2018-12-20T12:30:11.724Z,6.80
2018-12-20T12:32:41.211Z,6.80
2018-12-20T12:35:09.483Z,6.80
2018-12-20T12:37:37.817Z,6.80
2018-12-20T12:40:07.528Z,6.80
2018-12-20T12:42:35.806Z,6.80
2018-12-20T12:45:05.347Z,6.80
2018-12-20T12:47:40.791Z,6.80
2018-12-20T12:50:09.105Z,6.80
2018-12-20T12:52:37.661Z,6.80
2018-12-20T12:55:06.556Z,6.90
2018-12-20T12:57:37.513Z,6.90
2018-12-20T13:00:07.424Z,7.00
2018-12-20T13:02:35.781Z,6.90
2018-12-20T13:05:04.264Z,7.00
2018-12-20T13:07:32.457Z,6.90
2018-12-20T13:10:00.641Z,7.00
2018-12-20T13:12:29.110Z,7.00
2018-12-20T13:14:57.483Z,7.10
2018-12-20T13:17:26.596Z,7.10
2018-12-20T13:19:54.852Z,7.10
2018-12-20T13:22:23.006Z,7.10
2018-12-20T13:24:51.396Z,7.20
2018-12-20T13:27:19.794Z,7.40
2018-12-20T13:29:48.097Z,7.20
2018-12-20T13:32:16.551Z,7.20
2018-12-20T13:34:44.690Z,7.20
2018-12-20T13:37:16.044Z,7.20
2018-12-20T13:39:43.316Z,7.20
2018-12-20T13:42:11.578Z,7.20
2018-12-20T13:44:39.740Z,7.20
2018-12-20T13:47:08.061Z,7.30
2018-12-20T13:49:36.213Z,7.30
2018-12-20T13:52:04.641Z,7.40
2018-12-20T13:54:32.919Z,7.40
2018-12-20T13:57:01.261Z,7.40
2018-12-20T13:59:30.039Z,7.30
2018-12-20T14:01:58.399Z,7.40
2018-12-20T14:04:26.715Z,7.30
2018-12-20T14:06:55.039Z,7.20
2018-12-20T14:09:23.480Z,7.20
2018-12-20T14:11:51.806Z,7.20
2018-12-20T14:14:20.161Z,7.30
2018-12-20T14:16:48.550Z,7.30
2018-12-20T14:19:17.255Z,7.30
2018-12-20T14:21:45.624Z,7.30
2018-12-20T14:24:13.919Z,7.30
2018-12-20T14:26:42.229Z,7.30
2018-12-20T14:29:10.573Z,7.40
2018-12-20T14:31:38.943Z,7.30
2018-12-20T14:34:07.381Z,7.30
2018-12-20T14:36:35.659Z,7.30
2018-12-20T14:39:06.120Z,7.30
2018-12-20T14:41:35.005Z,7.30
2018-12-20T14:44:03.270Z,7.30
2018-12-20T14:46:31.711Z,7.40
2018-12-20T14:49:00.290Z,7.40
2018-12-20T14:51:28.787Z,7.40
2018-12-20T14:53:57.053Z,7.40
2018-12-20T14:56:25.341Z,7.40
2018-12-20T14:58:53.732Z,7.40
2018-12-20T15:01:22.205Z,7.50
2018-12-20T15:03:50.481Z,7.50
2018-12-20T15:06:18.715Z,7.50
2018-12-20T15:08:47.061Z,7.50
2018-12-20T15:11:15.577Z,7.50
2018-12-20T15:13:43.833Z,7.50
2018-12-20T15:16:12.222Z,7.50
2018-12-20T15:18:47.680Z,7.50
2018-12-20T15:21:11.631Z,7.50
2018-12-20T15:23:39.922Z,7.50
2018-12-20T15:26:08.434Z,7.50
2018-12-20T15:28:36.984Z,7.50
2018-12-20T15:31:05.285Z,7.50
2018-12-20T15:33:33.966Z,7.50
2018-12-20T15:36:02.394Z,7.50
2018-12-20T15:38:30.724Z,7.50
2018-12-20T15:40:59.066Z,7.50
2018-12-20T15:43:27.374Z,7.40
2018-12-20T15:45:55.966Z,7.30
2018-12-20T15:48:24.173Z,7.30
2018-12-20T15:50:52.751Z,7.30
2018-12-20T15:53:21.110Z,7.30
2018-12-20T15:55:49.740Z,7.30
2018-12-20T15:58:20.070Z,7.30
2018-12-20T16:00:49.037Z,7.30
2018-12-20T16:03:17.167Z,7.20
2018-12-20T16:05:45.433Z,7.30
2018-12-20T16:08:13.821Z,7.20
2018-12-20T16:10:42.591Z,7.20
2018-12-20T16:13:10.846Z,7.20
2018-12-20T16:15:39.151Z,7.10
2018-12-20T16:18:07.398Z,7.10
2018-12-20T16:20:35.534Z,7.10
2018-12-20T16:23:03.904Z,7.10
2018-12-20T16:25:32.459Z,7.10
2018-12-20T16:28:00.582Z,7.10
2018-12-20T16:30:28.854Z,7.10
2018-12-20T16:32:57.587Z,7.10
2018-12-20T16:35:26.119Z,7.20
2018-12-20T16:37:54.500Z,7.20
2018-12-20T16:40:22.638Z,7.20
2018-12-20T16:42:50.927Z,7.10
2018-12-20T16:45:19.678Z,7.10
2018-12-20T16:47:48.090Z,7.10
2018-12-20T16:50:16.277Z,7.10
2018-12-20T16:52:44.499Z,7.10
2018-12-20T16:55:12.915Z,7.10
2018-12-20T16:57:41.271Z,7.10
2018-12-20T17:00:11.658Z,7.10
2018-12-20T17:02:39.910Z,7.20
2018-12-20T17:05:08.186Z,7.20
2018-12-20T17:07:36.854Z,7.20
2018-12-20T17:10:06.466Z,7.20
2018-12-20T17:12:34.606Z,7.20
2018-12-20T17:15:02.971Z,7.20
2018-12-20T17:17:31.142Z,7.20
2018-12-20T17:19:59.787Z,7.20
2018-12-20T17:22:28.017Z,7.20
2018-12-20T17:24:56.275Z,7.20
2018-12-20T17:27:24.431Z,7.10
2018-12-20T17:29:52.734Z,7.10
2018-12-20T17:32:21.290Z,7.10
2018-12-20T17:34:49.690Z,7.10
2018-12-20T17:37:18.086Z,7.10
2018-12-20T17:39:46.289Z,7.10
2018-12-20T17:42:14.582Z,7.10
2018-12-20T17:44:43.120Z,7.10
2018-12-20T17:47:11.217Z,7.10
2018-12-20T17:49:39.395Z,7.10
2018-12-20T17:52:07.754Z,7.10
2018-12-20T17:54:36.000Z,7.10
2018-12-20T17:57:04.628Z,7.10
2018-12-20T17:59:33.512Z,7.10
2018-12-20T18:02:01.766Z,7.10
2018-12-20T18:04:30.389Z,7.10
2018-12-20T18:07:00.292Z,7.10
2018-12-20T18:09:28.674Z,7.10
2018-12-20T18:11:57.115Z,7.10
2018-12-20T18:14:25.410Z,7.20
2018-12-20T18:16:53.595Z,7.20
2018-12-20T18:19:21.876Z,7.20
2018-12-20T18:21:50.327Z,7.20
2018-12-20T18:24:18.677Z,7.30
2018-12-20T18:26:46.877Z,7.30
2018-12-20T18:29:15.137Z,7.30
2018-12-20T18:31:43.374Z,7.30
2018-12-20T18:34:11.588Z,7.20
2018-12-20T18:36:39.898Z,7.10
2018-12-20T18:39:08.188Z,7.10
2018-12-20T18:41:36.426Z,7.10
2018-12-20T18:44:04.909Z,7.10
2018-12-20T18:46:33.281Z,7.10
2018-12-20T18:49:01.670Z,7.10
2018-12-20T18:51:30.492Z,7.00
2018-12-20T18:53:58.814Z,7.00
2018-12-20T18:56:27.891Z,6.90
2018-12-20T18:58:56.143Z,6.90
2018-12-20T19:01:25.126Z,6.90
2018-12-20T19:03:53.797Z,6.80
2018-12-20T19:06:23.208Z,6.80
2018-12-20T19:08:51.705Z,6.80
2018-12-20T19:11:19.976Z,6.80
2018-12-20T19:13:48.130Z,6.80
2018-12-20T19:16:17.390Z,6.80
2018-12-20T19:18:46.099Z,6.70
2018-12-20T19:21:14.355Z,6.60
2018-12-20T19:23:42.703Z,6.50
2018-12-20T19:26:11.550Z,6.40
2018-12-20T19:28:40.071Z,6.40
2018-12-20T19:31:08.266Z,6.30
2018-12-20T19:33:36.709Z,6.30
2018-12-20T19:36:04.924Z,6.30
2018-12-20T19:38:33.228Z,6.30
2018-12-20T19:41:01.382Z,6.30
2018-12-20T19:43:30.306Z,6.30
2018-12-20T19:45:58.888Z,6.30
2018-12-20T19:48:27.097Z,6.40
2018-12-20T19:50:55.382Z,6.40
2018-12-20T19:53:23.510Z,6.40
2018-12-20T19:55:51.823Z,6.40
2018-12-20T19:58:19.975Z,6.50
2018-12-20T20:00:48.947Z,6.50
2018-12-20T20:03:17.122Z,6.50
2018-12-20T20:05:45.306Z,6.60
2018-12-20T20:08:13.574Z,6.60
2018-12-20T20:10:41.804Z,6.60
2018-12-20T20:13:09.993Z,6.60
2018-12-20T20:15:38.301Z,6.60
2018-12-20T20:18:06.666Z,6.60
2018-12-20T20:20:35.192Z,6.60
2018-12-20T20:23:03.504Z,6.60
2018-12-20T20:25:32.419Z,6.60
2018-12-20T20:28:00.630Z,6.60
2018-12-20T20:30:29.197Z,6.60
2018-12-20T20:32:57.649Z,6.60
2018-12-20T20:35:26.149Z,6.60
2018-12-20T20:37:54.429Z,6.60
2018-12-20T20:40:22.772Z,6.60
2018-12-20T20:42:51.187Z,6.60
2018-12-20T20:45:19.447Z,6.60
2018-12-20T20:47:47.713Z,6.60
2018-12-20T20:50:22.289Z,6.60
2018-12-20T20:52:46.181Z,6.50
2018-12-20T20:55:14.497Z,6.50
2018-12-20T20:57:43.003Z,6.60
2018-12-20T21:00:12.837Z,6.60
2018-12-20T21:02:41.778Z,6.60
2018-12-20T21:05:10.675Z,6.60
2018-12-20T21:07:39.154Z,6.70
2018-12-20T21:10:09.804Z,6.70
2018-12-20T21:12:38.116Z,6.70
2018-12-20T21:15:08.838Z,6.70
2018-12-20T21:17:37.032Z,6.70
2018-12-20T21:20:07.006Z,6.70
2018-12-20T21:22:35.286Z,6.70
2018-12-20T21:25:03.879Z,6.70
2018-12-20T21:27:32.143Z,6.60
2018-12-20T21:30:00.485Z,6.60
2018-12-20T21:32:29.016Z,6.60
2018-12-20T21:34:58.264Z,6.60
2018-12-20T21:37:26.588Z,6.60
2018-12-20T21:39:55.316Z,6.60
2018-12-20T21:42:23.464Z,6.70
2018-12-20T21:44:51.734Z,6.70
2018-12-20T21:47:19.937Z,6.70
2018-12-20T21:49:48.115Z,6.70
2018-12-20T21:52:16.348Z,6.70
2018-12-20T21:54:44.960Z,6.70
2018-12-20T21:57:13.947Z,6.70
2018-12-20T21:59:43.043Z,6.70
2018-12-20T22:02:11.265Z,6.70
2018-12-20T22:04:39.775Z,6.80
2018-12-20T22:07:08.707Z,6.80
2018-12-20T22:09:37.209Z,6.80
2018-12-20T22:12:05.554Z,6.80
2018-12-20T22:14:33.905Z,6.80
2018-12-20T22:17:02.178Z,6.80
2018-12-20T22:19:30.434Z,6.90
2018-12-20T22:21:58.577Z,6.80
2018-12-20T22:24:26.915Z,6.80
2018-12-20T22:26:55.209Z,6.90
2018-12-20T22:29:23.370Z,6.80
2018-12-20T22:31:51.735Z,6.80
2018-12-20T22:34:20.564Z,6.80
2018-12-20T22:36:48.805Z,6.70
2018-12-20T22:39:17.176Z,6.70
2018-12-20T22:41:45.338Z,6.60
2018-12-20T22:44:13.537Z,6.60
2018-12-20T22:46:42.032Z,6.60
2018-12-20T22:49:10.356Z,6.60
2018-12-20T22:51:38.682Z,6.60
2018-12-20T22:54:07.398Z,6.60
2018-12-20T22:56:35.787Z,6.60
2018-12-20T22:59:04.079Z,6.70
2018-12-20T23:01:32.748Z,6.70
2018-12-20T23:04:01.320Z,6.70
2018-12-20T23:06:29.538Z,6.70
2018-12-20T23:08:58.273Z,6.80
2018-12-20T23:11:26.687Z,6.80
2018-12-20T23:13:55.019Z,6.80
2018-12-20T23:16:23.351Z,6.80
2018-12-20T23:18:51.654Z,6.80
2018-12-20T23:21:19.867Z,6.80
2018-12-20T23:23:48.194Z,6.90
2018-12-20T23:26:16.900Z,6.80
2018-12-20T23:28:45.457Z,6.80
2018-12-20T23:31:14.181Z,6.90
2018-12-20T23:33:42.415Z,6.90
2018-12-20T23:36:10.662Z,6.90
2018-12-20T23:38:38.906Z,7.00
2018-12-20T23:41:07.176Z,7.00
2018-12-20T23:43:35.300Z,7.00
2018-12-20T23:46:03.605Z,7.00
2018-12-20T23:48:31.721Z,7.00
2018-12-20T23:51:00.674Z,7.00
2018-12-20T23:53:29.119Z,7.00
2018-12-20T23:55:57.965Z,7.10
2018-12-20T23:58:26.087Z,7.00
